Latest Weather Observations for Bridgetown

IDW60801

Issued at 3:02 pm WST Wednesday 1 June 2016 (issued every 30 minutes, with the page automatically refreshed every 10 minutes)

About weather observations | Map of weather stations | Latest weather observations for WA | Other Formats
Station Details ID: 009617 Name: BRIDGETOWN Lat: -33.95 Lon: 116.13 Height: 178.66 m
Data from the previous 72 hours. | See also: Recent months at Bridgetown
Date/Time
WST
Temp
°C
App
Temp
°C
Dew
Point
Rel
Hum
%
Delta-T
°C
Wind Press
QNH
hPa
Press
MSL
hPa
Rain
since 9 am
mm
Dir
 
Spd
km/h
Gust
km/h
Spd
kts
Gust
kts
01/03:00pm 17.1 15.8 9.3 60 4.1 SE 6 15 3 8 1022.2 1022.3 0.0
01/02:30pm 17.1 15.6 9.3 60 4.1 ENE 7 11 4 6 1022.3 1022.4 0.0
01/02:00pm 16.7 14.8 8.9 60 4.0 ESE 9 15 5 8 1022.4 1022.5 0.0
01/01:30pm 16.5 15.0 9.2 62 3.8 E 7 13 4 7 1022.5 1022.6 0.0
01/01:00pm 16.5 14.9 8.7 60 4.0 E 7 15 4 8 1022.8 1022.9 0.0
01/12:30pm 16.1 14.1 8.6 61 3.9 ESE 9 15 5 8 1023.1 1023.2 0.0
01/12:00pm 16.0 14.6 9.4 65 3.4 ESE 7 9 4 5 1023.4 1023.5 0.0
01/11:30am 14.4 13.5 9.4 72 2.6 SE 4 7 2 4 1023.9 1024.0 0.0
01/11:00am 11.7 10.3 8.7 82 1.5 S 6 9 3 5 1024.3 1024.5 0.0
01/10:30am 9.7 9.2 7.8 88 0.9 CALM 0 0 0 0 1024.6 1024.8 0.0
01/10:00am 7.5 6.4 6.8 95 0.3 SSE 2 4 1 2 1024.8 1025.0 0.0
01/09:30am 6.2 4.9 5.9 98 0.1 E 2 4 1 2 1024.8 1025.0 0.0
01/09:00am 4.3 3.0 4.0 98 0.1 CALM 0 0 0 0 1024.9 1025.1 0.2
01/08:30am 3.3 1.8 3.0 98 0.1 CALM 0 0 0 0 1025.1 1025.3 0.2
01/08:00am 2.0 0.3 1.7 98 0.1 CALM 0 0 0 0 1024.8 1025.0 0.2
01/07:30am 1.7 -0.1 1.4 98 0.1 CALM 0 0 0 0 1024.6 1024.6 0.2
01/07:00am 1.9 0.2 1.6 98 0.1 CALM 0 0 0 0 1024.5 1024.5 0.2
01/06:30am 2.1 0.4 1.8 98 0.1 CALM 0 0 0 0 1024.3 1024.3 0.2
01/06:00am 2.3 0.6 2.0 98 0.1 CALM 0 0 0 0 1024.1 1024.1 0.2
01/05:30am 2.6 1.0 2.3 98 0.1 CALM 0 0 0 0 1024.0 1024.0 0.2
01/05:00am 2.7 1.1 2.3 97 0.2 CALM 0 0 0 0 1023.9 1023.9 0.2
01/04:30am 2.8 1.2 2.4 97 0.2 CALM 0 0 0 0 1023.7 1023.7 0.2
01/04:00am 3.1 1.5 2.7 97 0.2 CALM 0 0 0 0 1023.7 1023.7 0.2
01/03:30am 3.4 1.9 3.0 97 0.2 CALM 0 0 0 0 1023.6 1023.6 0.2
01/03:00am 3.4 1.9 3.0 97 0.2 CALM 0 0 0 0 1023.5 1023.5 0.2
01/02:30am 3.2 1.7 2.8 97 0.2 CALM 0 0 0 0 1023.5 1023.5 0.0
01/02:00am 3.3 1.8 2.9 97 0.2 CALM 0 0 0 0 1023.3 1023.3 0.0
01/01:30am 2.6 1.0 2.2 97 0.2 CALM 0 0 0 0 1023.2 1023.2 0.0
01/01:00am 2.7 1.0 2.1 96 0.2 CALM 0 0 0 0 1023.0 1023.0 0.0
01/12:30am 3.0 1.4 2.4 96 0.2 CALM 0 0 0 0 1023.1 1023.1 0.0
01/12:00am 3.6 2.1 3.2 97 0.2 CALM 0 0 0 0 1023.2 1023.2 0.0
 
Date/Time
WST
Temp
°C
App
Temp
°C
Dew
Point
Rel
Hum
%
Delta-T
°C
Wind Press
QNH
hPa
Press
MSL
hPa
Rain
since 9 am
mm
Dir
 
Spd
km/h
Gust
km/h
Spd
kts
Gust
kts
31/11:30pm 3.7 2.2 3.1 96 0.2 CALM 0 0 0 0 1023.4 1023.4 0.0
31/11:00pm 3.9 2.5 3.3 96 0.2 CALM 0 0 0 0 1023.3 1023.3 0.0
31/10:30pm 4.8 3.5 4.2 96 0.3 CALM 0 0 0 0 1023.3 1023.3 0.0
31/10:00pm 5.0 3.8 4.4 96 0.3 CALM 0 0 0 0 1023.2 1023.2 0.0
31/09:30pm 6.1 5.1 5.5 96 0.3 CALM 0 0 0 0 1023.1 1023.1 0.0
31/09:00pm 6.1 5.1 5.4 95 0.3 CALM 0 0 0 0 1022.8 1022.7 0.0
31/08:30pm 6.6 5.7 5.9 95 0.3 CALM 0 0 0 0 1022.7 1022.6 0.0
31/08:00pm 6.9 6.0 6.0 94 0.4 CALM 0 0 0 0 1022.5 1022.4 0.0
31/07:30pm 7.4 6.6 6.5 94 0.4 CALM 0 0 0 0 1022.4 1022.3 0.0
31/07:00pm 7.8 7.0 6.6 92 0.6 CALM 0 0 0 0 1022.2 1022.1 0.0
31/06:30pm 8.7 8.1 7.3 91 0.7 CALM 0 0 0 0 1022.0 1021.9 0.0
31/06:00pm 9.7 9.2 7.8 88 0.9 CALM 0 0 0 0 1021.6 1021.5 0.0
31/05:30pm 11.0 10.6 8.4 84 1.3 CALM 0 0 0 0 1021.1 1021.0 0.0
31/05:00pm 12.1 11.7 8.4 78 1.8 CALM 0 0 0 0 1020.9 1020.8 0.0
31/04:30pm 13.6 13.1 8.0 69 2.8 CALM 0 0 0 0 1020.5 1020.5 0.0
31/04:00pm 15.7 15.5 9.1 65 3.4 CALM 0 0 0 0 1020.5 1020.5 0.0
31/03:30pm 15.5 14.5 7.3 58 4.1 NW 2 2 1 1 1020.3 1020.3 0.0
31/03:00pm 16.0 15.3 8.5 61 3.8 NNW 2 4 1 2 1020.2 1020.2 0.0
31/02:30pm 15.2 14.0 8.2 63 3.6 NNW 4 6 2 3 1020.1 1020.1 0.0
31/02:00pm 16.3 15.8 7.8 57 4.3 CALM 0 4 0 2 1020.3 1020.3 0.0
31/01:30pm 15.4 14.8 7.4 59 4.0 CALM 0 0 0 0 1020.3 1020.3 0.0
31/01:00pm 14.7 14.4 8.6 67 3.1 CALM 0 0 0 0 1020.7 1020.6 0.0
31/12:30pm 14.5 14.5 9.9 74 2.4 CALM 0 4 0 2 1020.9 1020.8 0.0
31/12:00pm 13.6 12.6 8.7 72 2.5 SE 4 4 2 2 1021.1 1021.0 0.0
31/11:30am 13.3 12.2 8.6 73 2.4 SE 4 7 2 4 1021.4 1021.3 0.0
31/11:00am 12.3 11.8 8.0 75 2.1 CALM 0 0 0 0 1021.5 1021.4 0.0
31/10:30am 10.4 9.8 7.5 82 1.4 CALM 0 0 0 0 1021.8 1021.7 0.0
31/10:00am 9.1 8.5 7.4 89 0.8 CALM 0 0 0 0 1021.9 1021.8 0.0
31/09:30am 7.2 6.4 6.6 96 0.3 CALM 0 2 0 1 1021.9 1021.8 0.0
31/09:00am 5.7 4.7 5.4 98 0.1 CALM 0 6 0 3 1021.9 1021.8 0.0
31/08:30am 3.8 2.4 3.5 98 0.1 CALM 0 0 0 0 1021.8 1021.7 0.0
31/08:00am 2.3 0.6 2.0 98 0.1 CALM 0 0 0 0 1021.4 1021.3 0.0
31/07:30am 1.8 -0.7 1.5 98 0.1 S 4 6 2 3 1021.4 1021.3 0.0
31/07:00am 0.7 -1.2 0.4 98 0.1 CALM 0 0 0 0 1021.2 1021.1 0.0
31/06:30am 1.0 -0.9 0.7 98 0.1 CALM 0 0 0 0 1021.0 1020.9 0.0
31/06:00am 0.8 -1.1 0.5 98 0.1 CALM 0 0 0 0 1020.8 1020.7 0.0
31/05:30am 1.3 -0.5 1.0 98 0.1 CALM 0 0 0 0 1020.5 1020.5 0.0
31/05:00am 1.5 -0.3 1.2 98 0.1 CALM 0 0 0 0 1020.4 1020.4 0.0
31/04:30am 1.9 0.2 1.6 98 0.1 CALM 0 0 0 0 1020.2 1020.2 0.0
31/04:00am 1.8 0.0 1.5 98 0.1 CALM 0 0 0 0 1020.3 1020.3 0.0
31/03:30am 1.8 -0.3 1.5 98 0.1 S 2 6 1 3 1020.3 1020.3 0.0
31/03:00am 1.8 0.0 1.4 97 0.2 CALM 0 0 0 0 1020.3 1020.3 0.0
31/02:30am 1.7 -0.1 1.3 97 0.2 CALM 0 0 0 0 1020.1 1020.1 0.0
31/02:00am 2.3 0.6 1.9 97 0.2 CALM 0 0 0 0 1020.0 1020.0 0.0
31/01:30am 1.8 0.0 1.4 97 0.2 CALM 0 0 0 0 1019.9 1019.9 0.0
31/01:00am 2.0 0.3 1.6 97 0.2 CALM 0 0 0 0 1019.8 1019.8 0.0
31/12:30am 2.1 0.4 1.7 97 0.2 CALM 0 0 0 0 1020.0 1020.0 0.0
31/12:00am 2.2 0.5 1.6 96 0.2 CALM 0 0 0 0 1020.1 1020.1 0.0
 
Date/Time
WST
Temp
°C
App
Temp
°C
Dew
Point
Rel
Hum
%
Delta-T
°C
Wind Press
QNH
hPa
Press
MSL
hPa
Rain
since 9 am
mm
Dir
 
Spd
km/h
Gust
km/h
Spd
kts
Gust
kts
30/11:30pm 2.8 1.2 2.4 97 0.2 CALM 0 0 0 0 1020.0 1020.0 0.0
30/11:00pm 3.1 1.5 2.5 96 0.2 CALM 0 0 0 0 1020.1 1020.1 0.0
30/10:30pm 3.6 2.1 3.0 96 0.2 CALM 0 0 0 0 1020.1 1020.1 0.0
30/10:00pm 3.7 2.2 3.1 96 0.2 CALM 0 0 0 0 1020.2 1020.2 0.0
30/09:30pm 3.9 2.5 3.3 96 0.2 CALM 0 0 0 0 1020.1 1020.1 0.0
30/09:00pm 5.0 3.8 4.4 96 0.3 CALM 0 0 0 0 1020.1 1020.1 0.0
30/08:30pm 5.0 3.7 4.3 95 0.3 CALM 0 0 0 0 1020.0 1020.0 0.0
30/08:00pm 5.6 4.4 4.7 94 0.4 CALM 0 0 0 0 1020.2 1020.2 0.0
30/07:30pm 6.5 5.5 5.6 94 0.4 CALM 0 0 0 0 1020.3 1020.3 0.0
30/07:00pm 7.0 6.0 5.8 92 0.5 CALM 0 0 0 0 1020.0 1020.0 0.0
30/06:30pm 7.7 6.8 6.2 90 0.7 CALM 0 0 0 0 1019.8 1019.8 0.0
30/06:00pm 9.0 8.3 7.1 88 0.9 CALM 0 0 0 0 1019.6 1019.6 0.0
30/05:30pm 10.5 10.0 7.9 84 1.3 CALM 0 0 0 0 1019.2 1019.2 0.0
30/05:00pm 12.4 11.8 7.3 71 2.5 CALM 0 0 0 0 1019.1 1019.1 0.0
30/04:30pm 14.5 13.1 7.3 62 3.6 NNE 4 6 2 3 1018.9 1018.9 0.0
30/04:00pm 15.1 13.7 7.2 59 3.9 NE 4 9 2 5 1018.7 1018.7 0.0
30/03:30pm 15.2 14.1 7.0 58 4.1 ESE 2 6 1 3 1018.5 1018.5 0.0
30/03:00pm 15.4 14.5 7.7 60 3.9 ESE 2 4 1 2 1018.5 1018.5 0.0
30/02:30pm 14.0 13.0 7.3 64 3.3 N 2 4 1 2 1018.5 1018.5 0.0
30/02:00pm 15.1 13.3 7.9 62 3.6 E 7 11 4 6 1018.4 1018.4 0.0
30/01:30pm 15.5 14.2 9.2 66 3.3 E 6 9 3 5 1018.4 1018.4 0.0
30/01:00pm 14.5 12.6 7.5 63 3.5 ENE 7 11 4 6 1018.5 1018.5 0.0
30/12:30pm 14.9 13.2 8.4 65 3.3 ENE 7 9 4 5 1019.0 1019.0 0.0
30/12:00pm 14.7 13.0 8.2 65 3.3 NNE 7 15 4 8 1019.4 1019.4 0.0
30/11:30am 14.2 12.2 8.6 69 2.8 N 9 19 5 10 1019.9 1019.9 0.0
30/11:00am 12.6 11.5 6.9 68 2.8 WSW 2 13 1 7 1020.3 1020.3 0.0
30/10:30am 10.0 8.9 8.3 89 0.8 S 4 6 2 3 1020.8 1020.7 0.0
30/10:00am 7.7 7.1 7.4 98 0.1 CALM 0 0 0 0 1020.9 1020.8 0.0
30/09:30am 5.0 3.8 4.7 98 0.1 CALM 0 0 0 0 1020.9 1020.8 0.0
30/09:00am 4.0 2.6 3.7 98 0.1 CALM 0 0 0 0 1021.0 1020.9 0.2
30/08:30am 3.3 1.8 3.0 98 0.1 CALM 0 0 0 0 1020.9 1020.8 0.2
30/08:00am 2.5 0.9 2.2 98 0.1 CALM 0 0 0 0 1020.8 1020.7 0.2
30/07:30am 2.2 0.5 1.8 97 0.2 CALM 0 0 0 0 1020.2 1020.2 0.2
30/07:00am 2.4 0.7 2.0 97 0.2 CALM 0 0 0 0 1020.3 1020.3 0.2
30/06:30am 2.4 0.7 2.0 97 0.2 CALM 0 0 0 0 1020.1 1020.1 0.0
30/06:00am 2.4 0.7 2.0 97 0.2 CALM 0 0 0 0 1020.0 1020.0 0.0
30/05:30am 2.2 0.5 1.8 97 0.2 CALM 0 0 0 0 1019.8 1019.8 0.0
30/05:00am 2.3 0.6 1.9 97 0.2 CALM 0 0 0 0 1019.8 1019.8 0.0
30/04:30am 2.1 0.4 1.7 97 0.2 CALM 0 0 0 0 1019.5 1019.5 0.0
30/04:00am 2.7 1.1 2.3 97 0.2 CALM 0 0 0 0 1019.4 1019.4 0.0
30/03:30am 2.6 0.9 2.0 96 0.2 CALM 0 0 0 0 1019.5 1019.5 0.0
30/03:00am 3.2 1.6 2.6 96 0.2 CALM 0 0 0 0 1019.7 1019.7 0.0
30/02:30am 3.5 2.0 2.9 96 0.2 CALM 0 0 0 0 1019.9 1019.9 0.0
30/02:00am 4.4 3.0 3.8 96 0.3 CALM 0 0 0 0 1020.0 1020.0 0.0
30/01:30am 4.7 3.4 4.1 96 0.3 CALM 0 0 0 0 1020.1 1020.1 0.0
30/01:00am 4.5 3.2 3.9 96 0.3 CALM 0 0 0 0 1020.3 1020.3 0.0
30/12:30am 4.3 2.9 3.6 95 0.3 CALM 0 0 0 0 1020.5 1020.5 0.0
30/12:00am 4.5 3.1 3.8 95 0.3 CALM 0 0 0 0 1020.8 1020.7 0.0
 
Date/Time
WST
Temp
°C
App
Temp
°C
Dew
Point
Rel
Hum
%
Delta-T
°C
Wind Press
QNH
hPa
Press
MSL
hPa
Rain
since 9 am
mm
Dir
 
Spd
km/h
Gust
km/h
Spd
kts
Gust
kts
29/11:30pm 4.8 3.5 3.9 94 0.4 CALM 0 0 0 0 1020.7 1020.6 0.0
29/11:00pm 5.5 4.3 4.5 93 0.4 CALM 0 0 0 0 1020.9 1020.8 0.0
29/10:30pm 6.4 5.4 5.4 93 0.4 CALM 0 0 0 0 1020.8 1020.7 0.0
29/10:00pm 7.2 6.2 5.8 91 0.6 CALM 0 0 0 0 1020.8 1020.7 0.0
29/09:30pm 8.7 8.1 7.3 91 0.7 CALM 0 0 0 0 1020.8 1020.7 0.0
29/09:00pm 9.1 8.5 7.5 90 0.8 CALM 0 0 0 0 1020.9 1020.8 0.0
29/08:30pm 9.3 8.6 6.9 85 1.1 CALM 0 0 0 0 1020.7 1020.6 0.0
29/08:00pm 10.1 9.6 7.7 85 1.2 CALM 0 0 0 0 1020.5 1020.5 0.0
29/07:30pm 10.5 10.0 7.7 83 1.4 CALM 0 0 0 0 1020.4 1020.4 0.0
29/07:00pm 10.7 10.1 7.2 79 1.7 CALM 0 0 0 0 1020.4 1020.4 0.0
29/06:30pm 11.3 10.7 7.4 77 1.9 CALM 0 0 0 0 1020.1 1020.1 0.0
29/06:00pm 11.9 11.0 6.2 68 2.7 CALM 0 0 0 0 1019.7 1019.7 0.0
29/05:30pm 12.2 11.1 6.9 70 2.6 S 2 4 1 2 1019.4 1019.4 0.0
29/05:00pm 12.4 11.2 6.5 67 2.8 SE 2 4 1 2 1019.2 1019.2 0.0
29/04:30pm 12.7 11.7 7.2 69 2.7 SE 2 4 1 2 1019.0 1019.0 0.0
29/04:00pm 12.9 11.8 6.7 66 3.0 SE 2 6 1 3 1018.9 1018.9 0.0
29/03:30pm 12.9 10.5 6.9 67 2.9 S 9 13 5 7 1018.6 1018.6 0.0

Other Formats:

Comma delimited format used in spreadsheet applications
http://www.bom.gov.au/fwo/IDW60801/IDW60801.95632.axf

JavaScript Object Notation format (JSON) in row-major order
http://www.bom.gov.au/fwo/IDW60801/IDW60801.95632.json